createdAt,value
2018-05-11T00:00:33.565Z,98181.09
2018-05-11T00:03:01.188Z,98175.84
2018-05-11T00:05:28.792Z,98179.72
2018-05-11T00:07:56.596Z,98181.65
2018-05-11T00:10:24.200Z,98175.55
2018-05-11T00:12:51.802Z,98177.63
2018-05-11T00:15:19.438Z,98179.95
2018-05-11T00:17:47.046Z,98178.77
2018-05-11T00:20:15.245Z,98180.28
2018-05-11T00:22:42.844Z,98185.97
2018-05-11T00:25:10.443Z,98187.31
2018-05-11T00:27:38.062Z,98192.72
2018-05-11T00:30:05.663Z,98189.36
2018-05-11T00:32:33.632Z,98192.94
2018-05-11T00:35:01.249Z,98188.09
2018-05-11T00:37:28.851Z,98186.02
2018-05-11T00:39:56.478Z,98195.80
2018-05-11T00:42:24.071Z,98190.99
2018-05-11T00:44:51.694Z,98191.39
2018-05-11T00:47:19.336Z,98190.62
2018-05-11T00:49:46.935Z,98191.35
2018-05-11T00:52:14.555Z,98194.69
2018-05-11T00:54:42.146Z,98197.95
2018-05-11T00:57:09.801Z,98200.07
2018-05-11T00:59:37.414Z,98198.52
2018-05-11T01:02:05.003Z,98203.98
2018-05-11T01:04:32.630Z,98202.15
2018-05-11T01:07:00.225Z,98213.39
2018-05-11T01:09:28.053Z,98215.63
2018-05-11T01:11:55.667Z,98216.13
2018-05-11T01:14:23.266Z,98218.16
2018-05-11T01:16:50.916Z,98228.26
2018-05-11T01:19:18.520Z,98221.75
2018-05-11T01:21:46.274Z,98218.63
2018-05-11T01:24:13.867Z,98217.59
2018-05-11T01:26:41.690Z,98222.16
2018-05-11T01:29:09.287Z,98227.03
2018-05-11T01:31:36.895Z,98221.56
2018-05-11T01:34:04.525Z,98229.31
2018-05-11T01:36:32.183Z,98222.97
2018-05-11T01:38:59.872Z,98227.88
2018-05-11T01:41:27.484Z,98217.04
2018-05-11T01:43:55.228Z,98222.75
2018-05-11T01:46:22.830Z,98227.58
2018-05-11T01:48:50.503Z,98221.19
2018-05-11T01:51:18.057Z,98224.39
2018-05-11T01:53:45.648Z,98224.52
2018-05-11T01:56:13.270Z,98216.97
2018-05-11T01:58:40.863Z,98222.98
2018-05-11T02:01:08.504Z,98217.29
2018-05-11T02:03:36.099Z,98216.22
2018-05-11T02:06:03.694Z,98217.70
2018-05-11T02:08:31.355Z,98221.96
2018-05-11T02:10:58.948Z,98223.44
2018-05-11T02:13:26.570Z,98220.30
2018-05-11T02:15:54.167Z,98223.36
2018-05-11T02:18:21.794Z,98223.67
2018-05-11T02:20:49.461Z,98216.87
2018-05-11T02:23:17.057Z,98228.63
2018-05-11T02:25:44.682Z,98215.85
2018-05-11T02:28:12.282Z,98219.13
2018-05-11T02:30:39.898Z,98217.02
2018-05-11T02:33:07.505Z,98220.68
2018-05-11T02:35:35.122Z,98207.38
2018-05-11T02:38:02.742Z,98206.09
2018-05-11T02:40:30.341Z,98203.15
2018-05-11T02:42:57.962Z,98202.93
2018-05-11T02:45:25.572Z,98210.73
2018-05-11T02:47:53.545Z,98213.32
2018-05-11T02:50:21.148Z,98215.42
2018-05-11T02:52:48.769Z,98216.08
2018-05-11T02:55:16.397Z,98217.68
2018-05-11T02:57:44.009Z,98216.61
2018-05-11T03:00:11.857Z,98214.84
2018-05-11T03:02:39.460Z,98216.48
2018-05-11T03:05:07.066Z,98215.58
2018-05-11T03:07:34.686Z,98221.68
2018-05-11T03:10:02.292Z,98224.27
2018-05-11T03:12:29.934Z,98224.89
2018-05-11T03:14:57.544Z,98230.71
2018-05-11T03:17:25.145Z,98234.05
2018-05-11T03:19:52.762Z,98239.13
2018-05-11T03:22:20.366Z,98236.39
2018-05-11T03:24:47.999Z,98239.10
2018-05-11T03:27:15.635Z,98236.64
2018-05-11T03:29:43.242Z,98236.89
2018-05-11T03:32:10.871Z,98233.64
2018-05-11T03:34:38.524Z,98234.78
2018-05-11T03:37:06.165Z,98235.77
2018-05-11T03:39:33.770Z,98242.72
2018-05-11T03:42:01.721Z,98246.60
2018-05-11T03:44:29.377Z,98247.08
2018-05-11T03:46:56.985Z,98246.86
2018-05-11T03:49:24.620Z,98245.30
2018-05-11T03:51:52.230Z,98245.63
2018-05-11T03:54:19.847Z,98246.25
2018-05-11T03:56:47.484Z,98251.33
2018-05-11T03:59:15.347Z,98249.65
2018-05-11T04:01:54.683Z,98245.31
2018-05-11T04:04:34.334Z,98248.97
2018-05-11T04:07:13.713Z,98250.83
2018-05-11T04:09:43.046Z,98246.33
2018-05-11T04:12:10.634Z,98253.11
2018-05-11T04:14:38.396Z,98247.47
2018-05-11T04:17:06.038Z,98240.56
2018-05-11T04:19:33.637Z,98246.08
2018-05-11T04:22:01.366Z,98250.64
2018-05-11T04:24:28.958Z,98245.28
2018-05-11T04:26:56.594Z,98246.64
2018-05-11T04:29:24.195Z,98246.85
2018-05-11T04:31:51.807Z,98245.36
2018-05-11T04:34:19.430Z,98245.91
2018-05-11T04:36:47.040Z,98255.15
2018-05-11T04:39:14.654Z,98250.08
2018-05-11T04:41:42.262Z,98249.83
2018-05-11T04:44:10.142Z,98256.93
2018-05-11T04:46:37.740Z,98252.69
2018-05-11T04:49:05.368Z,98253.34
2018-05-11T04:51:32.994Z,98257.66
2018-05-11T04:54:00.751Z,98256.09
2018-05-11T04:56:28.372Z,98264.61
2018-05-11T04:58:55.975Z,98265.38
2018-05-11T05:01:23.775Z,98263.47
2018-05-11T05:03:51.376Z,98268.33
2018-05-11T05:06:18.966Z,98270.22
2018-05-11T05:08:46.801Z,98272.63
2018-05-11T05:11:14.401Z,98269.47
2018-05-11T05:13:42.031Z,98268.28
2018-05-11T05:16:09.625Z,98268.02
2018-05-11T05:18:37.413Z,98275.52
2018-05-11T05:21:05.007Z,98279.09
2018-05-11T05:23:32.598Z,98274.73
2018-05-11T05:26:00.214Z,98280.57
2018-05-11T05:28:27.836Z,98278.63
2018-05-11T05:30:55.459Z,98281.27
2018-05-11T05:33:23.108Z,98283.52
2018-05-11T05:35:51.055Z,98280.00
2018-05-11T05:38:18.658Z,98288.69
2018-05-11T05:40:46.288Z,98277.15
2018-05-11T05:43:13.911Z,98287.00
2018-05-11T05:45:41.551Z,98282.61
2018-05-11T05:48:09.270Z,98273.08
2018-05-11T05:50:36.863Z,98279.02
2018-05-11T05:53:04.803Z,98276.75
2018-05-11T05:55:32.398Z,98269.25
2018-05-11T05:57:59.996Z,98267.62
2018-05-11T06:00:27.615Z,98265.70
2018-05-11T06:02:55.208Z,98273.13
2018-05-11T06:05:22.836Z,98272.96
2018-05-11T06:07:50.439Z,98273.48
2018-05-11T06:10:18.562Z,98282.12
2018-05-11T06:12:46.162Z,98287.72
2018-05-11T06:15:13.765Z,98285.20
2018-05-11T06:17:41.487Z,98287.67
2018-05-11T06:20:09.059Z,98288.58
2018-05-11T06:22:36.678Z,98292.39
2018-05-11T06:25:04.312Z,98287.67
2018-05-11T06:27:32.045Z,98292.55
2018-05-11T06:29:59.665Z,98298.25
2018-05-11T06:32:27.250Z,98295.52
2018-05-11T06:34:54.963Z,98303.22
2018-05-11T06:37:22.562Z,98297.69
2018-05-11T06:39:50.186Z,98295.70
2018-05-11T06:42:17.785Z,98295.30
2018-05-11T06:44:45.750Z,98300.84
2018-05-11T06:47:13.319Z,98302.39
2018-05-11T06:49:40.920Z,98303.88
2018-05-11T06:52:08.545Z,98303.53
2018-05-11T06:54:36.152Z,98309.09
2018-05-11T06:57:03.849Z,98314.41
2018-05-11T06:59:31.446Z,98309.02
2018-05-11T07:01:59.344Z,98315.67
2018-05-11T07:04:26.951Z,98305.98
2018-05-11T07:06:54.542Z,98297.07
2018-05-11T07:09:22.201Z,98296.48
2018-05-11T07:11:50.048Z,98297.83
2018-05-11T07:14:17.666Z,98293.84
2018-05-11T07:16:45.266Z,98295.72
2018-05-11T07:19:12.977Z,98296.47
2018-05-11T07:21:40.658Z,98289.02
2018-05-11T07:24:08.263Z,98291.95
2018-05-11T07:26:35.891Z,98293.77
2018-05-11T07:29:03.494Z,98282.31
2018-05-11T07:31:31.114Z,98281.41
2018-05-11T07:33:58.706Z,98287.84
2018-05-11T07:36:26.430Z,98296.05
2018-05-11T07:38:54.044Z,98292.34
2018-05-11T07:41:21.638Z,98299.02
2018-05-11T07:43:49.254Z,98299.53
2018-05-11T07:46:16.847Z,98293.80
2018-05-11T07:48:44.461Z,98290.72
2018-05-11T07:51:12.513Z,98293.53
2018-05-11T07:53:40.680Z,98300.50
2018-05-11T07:56:08.294Z,98292.63
2018-05-11T07:58:35.923Z,98300.20
2018-05-11T08:01:03.558Z,98298.38
2018-05-11T08:03:31.158Z,98292.95
2018-05-11T08:05:58.781Z,98291.70
2018-05-11T08:08:26.555Z,98291.78
2018-05-11T08:10:54.395Z,98285.89
2018-05-11T08:13:22.146Z,98282.38
2018-05-11T08:15:49.769Z,98285.42
2018-05-11T08:18:17.398Z,98287.19
2018-05-11T08:20:44.994Z,98285.50
2018-05-11T08:23:12.614Z,98279.48
2018-05-11T08:25:40.893Z,98278.94
2018-05-11T08:28:08.531Z,98278.70
2018-05-11T08:30:36.150Z,98282.95
2018-05-11T08:33:03.767Z,98284.52
2018-05-11T08:35:31.399Z,98283.14
2018-05-11T08:37:58.994Z,98290.50
2018-05-11T08:40:26.621Z,98279.48
2018-05-11T08:42:54.330Z,98283.06
2018-05-11T08:45:21.931Z,98270.53
2018-05-11T08:47:49.570Z,98277.83
2018-05-11T08:50:17.187Z,98275.25
2018-05-11T08:52:44.996Z,98272.45
2018-05-11T08:55:12.591Z,98279.48
2018-05-11T08:57:40.191Z,98274.77
2018-05-11T09:00:07.808Z,98273.60
2018-05-11T09:02:35.418Z,98270.22
2018-05-11T09:05:03.032Z,98274.47
2018-05-11T09:07:30.634Z,98272.54
2018-05-11T09:09:58.329Z,98266.77
2018-05-11T09:12:25.948Z,98271.09
2018-05-11T09:14:53.542Z,98273.31
2018-05-11T09:17:21.166Z,98268.94
2018-05-11T09:19:48.803Z,98265.59
2018-05-11T09:22:16.654Z,98265.17
2018-05-11T09:24:44.455Z,98263.98
2018-05-11T09:27:12.797Z,98258.38
2018-05-11T09:29:40.496Z,98261.80
2018-05-11T09:32:08.093Z,98263.73
2018-05-11T09:34:35.724Z,98267.09
2018-05-11T09:37:03.335Z,98271.09
2018-05-11T09:39:30.993Z,98265.16
2018-05-11T09:41:58.685Z,98253.39
2018-05-11T09:44:26.566Z,98257.56
2018-05-11T09:46:54.182Z,98258.55
2018-05-11T09:49:21.858Z,98261.08
2018-05-11T09:51:49.493Z,98254.56
2018-05-11T09:54:17.093Z,98247.50
2018-05-11T09:56:44.839Z,98241.83
2018-05-11T09:59:12.441Z,98237.77
2018-05-11T10:01:40.123Z,98240.13
2018-05-11T10:04:07.701Z,98241.34
2018-05-11T10:06:35.985Z,98241.37
2018-05-11T10:09:03.908Z,98237.97
2018-05-11T10:11:31.513Z,98234.11
2018-05-11T10:13:59.161Z,98232.11
2018-05-11T10:16:26.789Z,98236.78
2018-05-11T10:18:54.381Z,98239.73
2018-05-11T10:21:22.035Z,98235.27
2018-05-11T10:23:49.747Z,98243.31
2018-05-11T10:26:17.366Z,98247.98
2018-05-11T10:28:45.095Z,98239.53
2018-05-11T10:31:12.653Z,98241.20
2018-05-11T10:33:40.278Z,98242.12
2018-05-11T10:36:07.874Z,98239.67
2018-05-11T10:38:35.833Z,98242.02
2018-05-11T10:41:03.423Z,98241.86
2018-05-11T10:43:31.023Z,98237.38
2018-05-11T10:45:58.656Z,98237.23
2018-05-11T10:48:26.261Z,98228.48
2018-05-11T10:50:53.934Z,98226.11
2018-05-11T10:53:21.585Z,98214.92
2018-05-11T10:55:49.217Z,98202.02
2018-05-11T10:58:16.813Z,98211.51
2018-05-11T11:00:44.425Z,98209.36
2018-05-11T11:03:12.114Z,98210.48
2018-05-11T11:05:39.710Z,98213.02
2018-05-11T11:08:07.338Z,98220.62
2018-05-11T11:10:34.933Z,98221.45
2018-05-11T11:13:02.578Z,98218.41
2018-05-11T11:15:30.181Z,98212.39
2018-05-11T11:17:58.326Z,98212.94
2018-05-11T11:20:27.001Z,98206.86
2018-05-11T11:22:54.599Z,98203.25
2018-05-11T11:25:22.214Z,98204.63
2018-05-11T11:27:49.834Z,98208.77
2018-05-11T11:30:18.179Z,98200.93
2018-05-11T11:32:45.790Z,98197.88
2018-05-11T11:35:13.398Z,98201.16
2018-05-11T11:37:41.042Z,98192.59
2018-05-11T11:40:08.739Z,98194.45
2018-05-11T11:42:36.716Z,98185.81
2018-05-11T11:45:07.565Z,98186.16
2018-05-11T11:47:35.318Z,98178.38
2018-05-11T11:50:02.946Z,98177.05
2018-05-11T11:52:30.874Z,98178.98
2018-05-11T11:54:58.486Z,98169.34
2018-05-11T11:57:26.085Z,98172.83
2018-05-11T11:59:53.706Z,98168.34
2018-05-11T12:02:21.311Z,98164.98
2018-05-11T12:04:49.275Z,98165.50
2018-05-11T12:07:16.874Z,98164.02
2018-05-11T12:09:44.466Z,98167.88
2018-05-11T12:12:12.089Z,98165.41
2018-05-11T12:14:39.685Z,98163.38
2018-05-11T12:17:07.528Z,98164.73
2018-05-11T12:19:37.566Z,98160.12
2018-05-11T12:22:05.258Z,98162.70
2018-05-11T12:24:33.007Z,98157.95
2018-05-11T12:27:00.634Z,98152.81
2018-05-11T12:29:28.257Z,98156.13
2018-05-11T12:31:55.952Z,98148.91
2018-05-11T12:34:23.786Z,98144.63
2018-05-11T12:36:51.386Z,98152.50
2018-05-11T12:39:19.177Z,98147.14
2018-05-11T12:41:46.783Z,98154.36
2018-05-11T12:44:14.388Z,98150.08
2018-05-11T12:46:42.045Z,98146.41
2018-05-11T12:49:09.637Z,98138.78
2018-05-11T12:51:37.296Z,98140.36
2018-05-11T12:54:04.959Z,98127.56
2018-05-11T12:56:32.608Z,98136.48
2018-05-11T12:59:00.283Z,98132.85
2018-05-11T13:01:27.883Z,98123.09
2018-05-11T13:03:55.528Z,98120.14
2018-05-11T13:06:23.126Z,98116.57
2018-05-11T13:08:51.141Z,98116.02
2018-05-11T13:11:18.761Z,98118.43
2018-05-11T13:13:46.402Z,98109.75
2018-05-11T13:16:14.018Z,98107.10
2018-05-11T13:18:41.669Z,98109.36
2018-05-11T13:21:09.288Z,98102.86
2018-05-11T13:23:36.929Z,98101.84
2018-05-11T13:26:04.911Z,98096.88
2018-05-11T13:28:32.505Z,98094.31
2018-05-11T13:31:01.179Z,98093.37
2018-05-11T13:33:28.778Z,98084.62
2018-05-11T13:35:56.367Z,98076.08
2018-05-11T13:38:23.988Z,98074.45
2018-05-11T13:40:51.582Z,98071.25
2018-05-11T13:43:19.240Z,98070.27
2018-05-11T13:45:47.040Z,98067.18
2018-05-11T13:48:15.011Z,98059.41
2018-05-11T13:50:42.615Z,98060.84
2018-05-11T13:53:10.207Z,98053.34
2018-05-11T13:55:37.830Z,98050.48
2018-05-11T13:58:05.428Z,98048.41
2018-05-11T14:00:33.063Z,98052.95
2018-05-11T14:03:00.662Z,98054.81
2018-05-11T14:05:28.505Z,98054.67
2018-05-11T14:07:56.139Z,98048.09
2018-05-11T14:10:23.800Z,98046.41
2018-05-11T14:12:51.428Z,98042.41
2018-05-11T14:15:19.035Z,98040.42
2018-05-11T14:17:46.672Z,98035.33
2018-05-11T14:20:14.271Z,98034.61
2018-05-11T14:22:42.033Z,98037.97
2018-05-11T14:25:09.630Z,98036.77
2018-05-11T14:27:37.223Z,98037.14
2018-05-11T14:30:04.839Z,98027.90
2018-05-11T14:32:32.462Z,98026.13
2018-05-11T14:35:00.098Z,98023.80
2018-05-11T14:37:27.703Z,98023.97
2018-05-11T14:39:55.315Z,98020.89
2018-05-11T14:42:22.919Z,98024.34
2018-05-11T14:44:50.541Z,98026.89
2018-05-11T14:47:18.141Z,98023.94
2018-05-11T14:49:45.901Z,98020.95
2018-05-11T14:52:13.394Z,98018.82
2018-05-11T14:54:41.022Z,98016.52
2018-05-11T14:57:08.633Z,98004.42
2018-05-11T14:59:36.240Z,98012.87
2018-05-11T15:02:03.879Z,98010.77
2018-05-11T15:04:31.475Z,98006.70
2018-05-11T15:07:00.178Z,98004.28
2018-05-11T15:09:27.948Z,97999.34
2018-05-11T15:11:55.600Z,98009.61
2018-05-11T15:14:23.205Z,98001.39
2018-05-11T15:16:50.825Z,97998.96
2018-05-11T15:19:18.437Z,97999.38
2018-05-11T15:21:46.123Z,97995.23
2018-05-11T15:24:13.759Z,97993.65
2018-05-11T15:26:41.390Z,97998.38
2018-05-11T15:29:09.245Z,97995.91
2018-05-11T15:31:36.856Z,97987.61
2018-05-11T15:34:04.468Z,97978.63
2018-05-11T15:36:32.112Z,97980.20
2018-05-11T15:38:59.716Z,97979.39
2018-05-11T15:41:27.343Z,97976.04
2018-05-11T15:43:54.938Z,97968.44
2018-05-11T15:46:22.587Z,97960.75
2018-05-11T15:48:50.244Z,97962.94
2018-05-11T15:51:17.838Z,97962.14
2018-05-11T15:53:45.468Z,97961.57
2018-05-11T15:56:13.073Z,97954.95
2018-05-11T15:58:40.694Z,97943.13
2018-05-11T16:01:08.292Z,97941.53
2018-05-11T16:03:35.971Z,97939.27
2018-05-11T16:06:03.566Z,97938.83
2018-05-11T16:08:32.238Z,97935.87
2018-05-11T16:10:59.865Z,97933.76
2018-05-11T16:13:28.180Z,97927.56
2018-05-11T16:15:55.791Z,97924.33
2018-05-11T16:18:23.386Z,97924.06
2018-05-11T16:20:51.193Z,97926.59
2018-05-11T16:23:18.812Z,97916.75
2018-05-11T16:25:46.591Z,97915.31
2018-05-11T16:28:14.300Z,97917.47
2018-05-11T16:30:41.832Z,97909.45
2018-05-11T16:33:09.458Z,97910.98
2018-05-11T16:35:37.074Z,97904.25
2018-05-11T16:38:04.938Z,97908.98
2018-05-11T16:40:32.602Z,97908.85
2018-05-11T16:43:00.435Z,97904.65
2018-05-11T16:45:28.058Z,97908.94
2018-05-11T16:47:55.690Z,97908.12
2018-05-11T16:50:23.392Z,97910.47
2018-05-11T16:52:51.014Z,97906.54
2018-05-11T16:55:18.651Z,97909.78
2018-05-11T16:57:46.270Z,97905.98
2018-05-11T17:00:13.859Z,97902.50
2018-05-11T17:02:41.487Z,97900.62
2018-05-11T17:05:09.090Z,97898.78
2018-05-11T17:07:36.717Z,97899.31
2018-05-11T17:10:04.323Z,97903.16
2018-05-11T17:12:32.272Z,97898.59
2018-05-11T17:14:59.866Z,97898.25
2018-05-11T17:17:27.498Z,97897.29
2018-05-11T17:19:55.114Z,97895.64
2018-05-11T17:22:22.715Z,97896.56
2018-05-11T17:24:50.585Z,97892.46
2018-05-11T17:27:18.198Z,97895.31
2018-05-11T17:29:45.787Z,97896.59
2018-05-11T17:32:13.408Z,97895.38
2018-05-11T17:34:41.002Z,97897.52
2018-05-11T17:37:08.642Z,97905.98
2018-05-11T17:39:36.295Z,97900.91
2018-05-11T17:42:04.160Z,97897.87
2018-05-11T17:44:31.761Z,97896.84
2018-05-11T17:46:59.372Z,97898.20
2018-05-11T17:49:26.995Z,97895.83
2018-05-11T17:51:54.586Z,97902.63
2018-05-11T17:54:22.234Z,97902.72
2018-05-11T17:56:49.832Z,97901.48
2018-05-11T17:59:17.630Z,97908.92
2018-05-11T18:01:45.238Z,97903.28
2018-05-11T18:04:12.839Z,97902.43
2018-05-11T18:06:40.558Z,97905.63
2018-05-11T18:09:08.093Z,97905.63
2018-05-11T18:11:35.718Z,97906.15
2018-05-11T18:14:03.352Z,97912.47
2018-05-11T18:16:31.315Z,97913.92
2018-05-11T18:18:58.999Z,97911.53
2018-05-11T18:21:26.546Z,97915.73
2018-05-11T18:23:54.163Z,97914.37
2018-05-11T18:26:21.750Z,97914.42
2018-05-11T18:28:49.482Z,97913.35
2018-05-11T18:31:17.151Z,97913.20
2018-05-11T18:33:45.074Z,97918.02
2018-05-11T18:36:12.671Z,97911.16
2018-05-11T18:38:40.698Z,97913.05
2018-05-11T18:41:08.310Z,97924.08
2018-05-11T18:43:35.915Z,97926.41
2018-05-11T18:46:03.534Z,97929.58
2018-05-11T18:48:31.130Z,97935.34
2018-05-11T18:50:58.911Z,97935.84
2018-05-11T18:53:26.613Z,97933.80
2018-05-11T18:55:54.135Z,97936.02
2018-05-11T18:58:21.764Z,97940.33
2018-05-11T19:00:49.356Z,97942.33
2018-05-11T19:03:16.985Z,97943.66
2018-05-11T19:05:44.582Z,97947.94
2018-05-11T19:08:12.352Z,97948.41
2018-05-11T19:10:39.975Z,97961.77
2018-05-11T19:13:07.678Z,97966.21
2018-05-11T19:15:35.303Z,97970.36
2018-05-11T19:18:02.992Z,97973.89
2018-05-11T19:20:30.546Z,97981.02
2018-05-11T19:22:58.962Z,97986.39
2018-05-11T19:25:26.700Z,97989.72
2018-05-11T19:27:54.309Z,97993.72
2018-05-11T19:30:21.902Z,97998.50
2018-05-11T19:32:49.533Z,98000.12
2018-05-11T19:35:17.142Z,98006.91
2018-05-11T19:37:44.773Z,98009.86
2018-05-11T19:40:12.408Z,98006.16
2018-05-11T19:42:40.157Z,98010.73
2018-05-11T19:45:07.760Z,98016.05
2018-05-11T19:47:35.365Z,98014.09
2018-05-11T19:50:02.991Z,98014.25
2018-05-11T19:52:30.600Z,98014.41
2018-05-11T19:54:58.242Z,98019.70
2018-05-11T19:57:25.877Z,98024.28
2018-05-11T19:59:53.678Z,98023.85
2018-05-11T20:02:21.314Z,98024.70
2018-05-11T20:04:48.928Z,98024.36
2018-05-11T20:07:16.569Z,98021.13
2018-05-11T20:09:44.162Z,98031.50
2018-05-11T20:12:11.802Z,98030.47
2018-05-11T20:14:39.397Z,98021.27
2018-05-11T20:17:07.410Z,98027.86
2018-05-11T20:19:35.005Z,98030.69
2018-05-11T20:22:02.605Z,98026.55
2018-05-11T20:24:30.225Z,98031.41
2018-05-11T20:26:57.816Z,98035.36
2018-05-11T20:29:25.428Z,98037.56
2018-05-11T20:31:53.041Z,98029.36
2018-05-11T20:34:20.735Z,98034.64
2018-05-11T20:36:48.330Z,98034.62
2018-05-11T20:39:15.930Z,98036.00
2018-05-11T20:41:43.565Z,98027.41
2018-05-11T20:44:11.160Z,98024.05
2018-05-11T20:46:39.020Z,98032.41
2018-05-11T20:49:06.628Z,98033.14
2018-05-11T20:51:34.236Z,98028.64
2018-05-11T20:54:01.901Z,98027.05
2018-05-11T20:56:29.582Z,98027.96
2018-05-11T20:58:57.211Z,98027.09
2018-05-11T21:01:24.808Z,98026.55
2018-05-11T21:03:52.598Z,98020.34
2018-05-11T21:06:20.242Z,98022.42
2018-05-11T21:08:47.862Z,98021.67
2018-05-11T21:11:15.497Z,98019.91
2018-05-11T21:13:43.099Z,98020.82
2018-05-11T21:16:10.725Z,98021.50
2018-05-11T21:18:38.322Z,98021.22
2018-05-11T21:21:06.134Z,98022.17
2018-05-11T21:23:33.742Z,98023.41
2018-05-11T21:26:02.359Z,98021.55
2018-05-11T21:28:30.062Z,98021.34
2018-05-11T21:30:57.672Z,98018.20
2018-05-11T21:33:25.379Z,98022.77
2018-05-11T21:35:52.930Z,98016.89
2018-05-11T21:38:21.215Z,98022.69
2018-05-11T21:40:48.911Z,98019.50
2018-05-11T21:43:16.536Z,98014.38
2018-05-11T21:45:44.198Z,98021.83
2018-05-11T21:48:11.791Z,98022.56
2018-05-11T21:50:39.498Z,98023.76
2018-05-11T21:53:07.029Z,98026.96
2018-05-11T21:55:35.053Z,98025.88
2018-05-11T21:58:03.312Z,98024.68
2018-05-11T22:00:30.918Z,98027.03
2018-05-11T22:02:58.664Z,98029.70
2018-05-11T22:05:26.270Z,98028.35
2018-05-11T22:07:53.896Z,98022.23
2018-05-11T22:10:21.523Z,98025.29
2018-05-11T22:12:49.414Z,98023.19
2018-05-11T22:15:17.014Z,98020.69
2018-05-11T22:17:44.608Z,98013.58
2018-05-11T22:20:12.244Z,98014.94
2018-05-11T22:22:39.853Z,98022.67
2018-05-11T22:25:07.474Z,98020.30
2018-05-11T22:27:35.076Z,98018.53
2018-05-11T22:30:02.731Z,98026.76
2018-05-11T22:32:30.356Z,98020.37
2018-05-11T22:34:58.058Z,98026.05
2018-05-11T22:37:25.690Z,98019.27
2018-05-11T22:39:53.502Z,98015.22
2018-05-11T22:42:21.132Z,98011.56
2018-05-11T22:44:48.726Z,98008.09
2018-05-11T22:47:16.458Z,98007.45
2018-05-11T22:49:44.069Z,98005.69
2018-05-11T22:52:11.675Z,98003.30
2018-05-11T22:54:39.299Z,97998.17
2018-05-11T22:57:06.914Z,98007.53
2018-05-11T22:59:34.527Z,97998.68
2018-05-11T23:02:02.133Z,97997.13
2018-05-11T23:04:29.779Z,97995.67
2018-05-11T23:06:57.369Z,97995.93
2018-05-11T23:09:25.012Z,97992.30
2018-05-11T23:11:52.649Z,97999.55
2018-05-11T23:14:20.252Z,97996.05
2018-05-11T23:16:47.874Z,98000.08
2018-05-11T23:19:15.475Z,97994.80
2018-05-11T23:21:43.259Z,97996.85
2018-05-11T23:24:10.921Z,97994.27
2018-05-11T23:26:38.510Z,97989.33
2018-05-11T23:29:06.143Z,97991.98
2018-05-11T23:31:33.740Z,97983.56
2018-05-11T23:34:01.650Z,97984.35
2018-05-11T23:36:29.251Z,97977.89
2018-05-11T23:38:56.856Z,97980.92
2018-05-11T23:41:24.714Z,97982.62
2018-05-11T23:43:52.326Z,97973.77
2018-05-11T23:46:19.948Z,97967.20
2018-05-11T23:48:47.551Z,97962.38
2018-05-11T23:51:15.299Z,97958.87
2018-05-11T23:53:42.906Z,97961.32
2018-05-11T23:56:10.508Z,97974.03
2018-05-11T23:58:38.143Z,97977.80
